createdAt,value
2023-01-13T00:01:50.126Z,99.90
2023-01-13T00:04:19.603Z,99.90
2023-01-13T00:06:47.090Z,99.90
2023-01-13T00:09:14.517Z,99.90
2023-01-13T00:11:41.739Z,99.90
2023-01-13T00:14:09.024Z,99.90
2023-01-13T00:16:36.196Z,99.90
2023-01-13T00:19:03.635Z,99.90
2023-01-13T00:21:30.828Z,99.90
2023-01-13T00:23:58.301Z,99.90
2023-01-13T00:26:28.489Z,99.90
2023-01-13T00:29:02.932Z,99.90
2023-01-13T00:31:30.863Z,99.90
2023-01-13T00:34:00.162Z,99.90
2023-01-13T00:36:30.992Z,99.90
2023-01-13T00:38:59.322Z,99.90
2023-01-13T00:41:27.229Z,99.90
2023-01-13T00:43:54.461Z,99.90
2023-01-13T00:46:28.905Z,99.90
2023-01-13T00:48:59.454Z,99.90
2023-01-13T00:51:31.911Z,99.90
2023-01-13T00:53:59.129Z,99.90
2023-01-13T00:56:41.278Z,99.90
2023-01-13T00:59:11.982Z,99.90
2023-01-13T01:01:39.650Z,99.90
2023-01-13T01:04:12.461Z,99.90
2023-01-13T01:06:40.745Z,99.90
2023-01-13T01:09:08.158Z,99.90
2023-01-13T01:11:35.672Z,99.90
2023-01-13T01:14:04.373Z,99.90
2023-01-13T01:16:33.069Z,99.90
2023-01-13T01:19:06.228Z,99.90
2023-01-13T01:21:34.482Z,99.90
2023-01-13T01:24:14.105Z,99.90
2023-01-13T01:26:43.904Z,99.90
2023-01-13T01:29:15.654Z,99.90
2023-01-13T01:31:51.496Z,99.90
2023-01-13T01:34:37.607Z,99.90
2023-01-13T01:37:37.843Z,99.90
2023-01-13T01:40:19.836Z,99.90
2023-01-13T01:43:16.071Z,99.90
2023-01-13T01:45:59.419Z,99.90
2023-01-13T01:48:47.066Z,99.90
2023-01-13T01:51:28.064Z,99.90
2023-01-13T01:54:25.179Z,99.90
2023-01-13T01:56:55.983Z,99.90
2023-01-13T01:59:38.302Z,99.90
2023-01-13T02:02:11.802Z,99.90
2023-01-13T02:04:43.097Z,99.90
2023-01-13T02:07:10.796Z,99.90
2023-01-13T02:09:44.445Z,99.90
2023-01-13T02:12:30.231Z,99.90
2023-01-13T02:15:09.611Z,99.90
2023-01-13T02:18:11.967Z,99.90
2023-01-13T02:21:09.843Z,99.90
2023-01-13T02:24:03.886Z,99.90
2023-01-13T02:26:49.930Z,99.90
2023-01-13T02:30:34.211Z,99.90
2023-01-13T02:33:34.552Z,99.90
2023-01-13T02:36:13.322Z,99.90
2023-01-13T02:38:46.932Z,99.90
2023-01-13T02:42:00.969Z,99.90
2023-01-13T02:44:36.189Z,99.90
2023-01-13T02:47:13.331Z,99.90
2023-01-13T02:49:47.904Z,99.90
2023-01-13T02:52:23.779Z,99.90
2023-01-13T02:54:59.622Z,99.90
2023-01-13T02:57:29.969Z,99.90
2023-01-13T02:59:57.550Z,99.90
2023-01-13T03:02:26.166Z,99.90
2023-01-13T03:05:03.745Z,99.90
2023-01-13T03:07:52.406Z,99.90
2023-01-13T03:10:34.047Z,99.90
2023-01-13T03:13:06.884Z,99.90
2023-01-13T03:16:05.297Z,99.90
2023-01-13T03:19:13.407Z,99.90
2023-01-13T03:22:01.856Z,99.90
2023-01-13T03:24:47.277Z,99.90
2023-01-13T03:27:31.015Z,99.90
2023-01-13T03:30:24.363Z,99.90
2023-01-13T03:33:02.871Z,99.90
2023-01-13T03:35:44.197Z,99.90
2023-01-13T03:38:34.195Z,99.90
2023-01-13T03:41:23.471Z,99.90
2023-01-13T03:44:25.151Z,99.90
2023-01-13T03:47:22.876Z,99.90
2023-01-13T03:50:08.416Z,99.90
2023-01-13T03:52:40.647Z,99.90
2023-01-13T03:55:18.962Z,99.90
2023-01-13T03:58:02.507Z,99.90
2023-01-13T04:00:53.000Z,99.90
2023-01-13T04:03:52.656Z,99.90
2023-01-13T04:06:49.510Z,99.90
2023-01-13T04:09:41.591Z,99.90
2023-01-13T04:12:25.396Z,99.90
2023-01-13T04:15:02.075Z,99.90
2023-01-13T04:17:32.206Z,99.90
2023-01-13T04:20:01.791Z,99.90
2023-01-13T04:22:28.973Z,99.90
2023-01-13T04:24:59.436Z,99.90
2023-01-13T04:27:35.054Z,99.90
2023-01-13T04:30:02.379Z,99.90
2023-01-13T04:32:29.954Z,99.90
2023-01-13T04:35:00.343Z,99.90
2023-01-13T04:37:27.600Z,99.90
2023-01-13T04:39:55.206Z,99.90
2023-01-13T04:42:22.406Z,99.90
2023-01-13T04:44:49.648Z,99.90
2023-01-13T04:47:24.507Z,99.90
2023-01-13T04:49:53.999Z,99.90
2023-01-13T04:52:22.424Z,99.90
2023-01-13T04:54:55.466Z,99.90
2023-01-13T04:57:22.973Z,99.90
2023-01-13T04:59:50.278Z,99.90
2023-01-13T05:02:20.221Z,99.90
2023-01-13T05:04:48.616Z,99.90
2023-01-13T05:07:17.541Z,99.90
2023-01-13T05:09:49.711Z,99.90
2023-01-13T05:12:52.260Z,99.90
2023-01-13T05:15:38.312Z,99.90
2023-01-13T05:18:05.771Z,99.90
2023-01-13T05:20:33.323Z,99.90
2023-01-13T05:23:19.557Z,99.90
2023-01-13T05:25:48.585Z,99.90
2023-01-13T05:28:18.218Z,99.90
2023-01-13T05:30:49.595Z,99.90
2023-01-13T05:33:20.612Z,99.90
2023-01-13T05:35:52.581Z,99.90
2023-01-13T05:38:19.860Z,99.90
2023-01-13T05:41:05.642Z,99.90
2023-01-13T05:43:33.291Z,99.90
2023-01-13T05:46:07.067Z,99.90
2023-01-13T05:48:39.417Z,99.90
2023-01-13T05:51:09.290Z,99.90
2023-01-13T05:53:37.467Z,99.90
2023-01-13T05:56:08.629Z,99.90
2023-01-13T05:58:36.249Z,99.90
2023-01-13T06:01:06.590Z,99.90
2023-01-13T06:03:36.865Z,99.90
2023-01-13T06:06:09.223Z,99.90
2023-01-13T06:08:39.441Z,99.90
2023-01-13T06:11:07.210Z,99.90
2023-01-13T06:13:34.633Z,99.90
2023-01-13T06:16:01.925Z,99.90
2023-01-13T06:18:32.084Z,99.90
2023-01-13T06:20:59.309Z,99.90
2023-01-13T06:23:27.249Z,99.90
2023-01-13T06:26:07.202Z,99.90
2023-01-13T06:28:40.104Z,99.90
2023-01-13T06:31:11.866Z,99.90
2023-01-13T06:34:11.413Z,99.90
2023-01-13T06:36:57.360Z,99.90
2023-01-13T06:39:38.121Z,99.90
2023-01-13T06:42:23.937Z,99.90
2023-01-13T06:44:54.455Z,99.90
2023-01-13T06:47:28.442Z,99.90
2023-01-13T06:49:55.623Z,99.90
2023-01-13T06:52:23.687Z,99.90
2023-01-13T06:55:00.893Z,99.90
2023-01-13T06:57:30.694Z,99.90
2023-01-13T06:59:58.051Z,99.90
2023-01-13T07:02:25.343Z,99.90
2023-01-13T07:04:53.739Z,99.90
2023-01-13T07:07:23.841Z,99.90
2023-01-13T07:09:53.665Z,99.90
2023-01-13T07:12:21.985Z,99.90
2023-01-13T07:15:07.817Z,99.90
2023-01-13T07:17:35.229Z,99.90
2023-01-13T07:20:03.050Z,99.90
2023-01-13T07:22:30.197Z,99.90
2023-01-13T07:24:58.502Z,99.90
2023-01-13T07:27:25.701Z,99.90
2023-01-13T07:29:53.323Z,99.90
2023-01-13T07:32:20.683Z,99.90
2023-01-13T07:34:47.859Z,99.90
2023-01-13T07:37:24.454Z,99.90
2023-01-13T07:40:13.183Z,99.90
2023-01-13T07:42:58.801Z,99.90
2023-01-13T07:45:38.309Z,99.90
2023-01-13T07:48:08.230Z,99.90
2023-01-13T07:50:35.467Z,99.90
2023-01-13T07:53:21.184Z,99.90
2023-01-13T07:55:48.762Z,99.90
2023-01-13T07:58:16.142Z,99.90
2023-01-13T08:00:43.502Z,99.90
2023-01-13T08:03:10.853Z,99.90
2023-01-13T08:05:38.072Z,99.90
2023-01-13T08:08:05.465Z,99.90
2023-01-13T08:10:34.875Z,99.90
2023-01-13T08:13:21.242Z,99.90
2023-01-13T08:15:51.167Z,99.90
2023-01-13T08:18:22.688Z,99.90
2023-01-13T08:20:52.471Z,99.90
2023-01-13T08:23:21.108Z,99.90
2023-01-13T08:25:49.023Z,99.90
2023-01-13T08:28:19.670Z,99.90
2023-01-13T08:30:49.563Z,99.90
2023-01-13T08:33:16.949Z,99.90
2023-01-13T08:35:44.097Z,99.90
2023-01-13T08:38:11.337Z,99.90
2023-01-13T08:40:43.188Z,99.90
2023-01-13T08:43:10.388Z,99.90
2023-01-13T08:45:38.976Z,99.90
2023-01-13T08:48:07.354Z,99.90
2023-01-13T08:50:34.676Z,99.90
2023-01-13T08:53:05.059Z,99.90
2023-01-13T08:55:32.286Z,99.90
2023-01-13T08:58:15.291Z,99.90
2023-01-13T09:00:44.052Z,99.90
2023-01-13T09:03:18.841Z,99.90
2023-01-13T09:05:54.621Z,99.90
2023-01-13T09:08:21.825Z,99.90
2023-01-13T09:10:49.074Z,99.90
2023-01-13T09:13:17.237Z,99.90
2023-01-13T09:15:46.247Z,99.90
2023-01-13T09:18:16.315Z,99.90
2023-01-13T09:20:48.732Z,99.90
2023-01-13T09:23:17.310Z,99.90
2023-01-13T09:25:49.566Z,99.90
2023-01-13T09:28:16.712Z,99.90
2023-01-13T09:30:44.108Z,99.90
2023-01-13T09:33:31.986Z,99.90
2023-01-13T09:36:01.944Z,99.90
2023-01-13T09:38:30.772Z,99.90
2023-01-13T09:41:28.368Z,99.90
2023-01-13T09:44:01.463Z,99.90
2023-01-13T09:46:47.429Z,99.90
2023-01-13T09:49:38.234Z,99.90
2023-01-13T09:52:16.040Z,99.90
2023-01-13T09:54:46.087Z,99.90
2023-01-13T09:57:19.705Z,99.90
2023-01-13T09:59:47.667Z,99.90
2023-01-13T10:02:33.877Z,99.90
2023-01-13T10:05:13.233Z,99.90
2023-01-13T10:07:49.616Z,99.90
2023-01-13T10:10:39.168Z,99.90
2023-01-13T10:13:21.450Z,99.90
2023-01-13T10:16:07.739Z,99.90
2023-01-13T10:18:50.968Z,99.70
2023-01-13T10:21:53.107Z,99.10
2023-01-13T10:24:44.432Z,98.40
2023-01-13T10:27:40.232Z,98.00
2023-01-13T10:30:33.769Z,97.50
2023-01-13T10:33:07.481Z,97.00
2023-01-13T10:35:59.553Z,95.70
2023-01-13T10:38:35.988Z,95.20
2023-01-13T10:41:16.349Z,95.80
2023-01-13T10:43:44.962Z,96.40
2023-01-13T10:46:20.264Z,96.40
2023-01-13T10:48:59.372Z,96.60
2023-01-13T10:51:32.529Z,96.50
2023-01-13T10:54:24.836Z,97.00
2023-01-13T10:57:16.262Z,96.50
2023-01-13T10:59:45.187Z,95.90
2023-01-13T11:02:36.050Z,96.00
2023-01-13T11:05:16.842Z,95.80
2023-01-13T11:07:50.679Z,95.10
2023-01-13T11:10:21.075Z,94.40
2023-01-13T11:12:55.086Z,93.90
2023-01-13T11:15:39.815Z,94.00
2023-01-13T11:18:25.277Z,94.70
2023-01-13T11:20:55.921Z,94.50
2023-01-13T11:23:25.434Z,94.00
2023-01-13T11:25:59.747Z,94.50
2023-01-13T11:29:03.812Z,94.10
2023-01-13T11:31:45.040Z,95.10
2023-01-13T11:34:32.682Z,96.00
2023-01-13T11:37:04.378Z,93.20
2023-01-13T11:39:47.530Z,94.00
2023-01-13T11:42:31.755Z,93.80
2023-01-13T11:45:20.298Z,95.30
2023-01-13T11:47:54.534Z,97.00
2023-01-13T11:50:59.070Z,97.70
2023-01-13T11:53:50.904Z,97.80
2023-01-13T11:57:00.272Z,96.80
2023-01-13T12:00:00.055Z,96.50
2023-01-13T12:02:44.523Z,97.30
2023-01-13T12:05:29.305Z,97.00
2023-01-13T12:08:31.861Z,96.80
2023-01-13T12:11:15.211Z,96.90
2023-01-13T12:14:12.819Z,96.40
2023-01-13T12:16:49.168Z,95.00
2023-01-13T12:19:21.983Z,94.60
2023-01-13T12:22:16.720Z,95.70
2023-01-13T12:24:55.455Z,96.10
2023-01-13T12:27:48.224Z,96.60
2023-01-13T12:30:32.411Z,97.20
2023-01-13T12:33:18.645Z,98.00
2023-01-13T12:36:11.991Z,98.80
2023-01-13T12:39:27.890Z,98.80
2023-01-13T12:43:03.593Z,99.30
2023-01-13T12:45:33.438Z,99.90
2023-01-13T12:48:01.440Z,99.90
2023-01-13T12:50:31.010Z,99.90
2023-01-13T12:53:19.782Z,99.90
2023-01-13T12:55:52.151Z,99.90
2023-01-13T12:58:28.342Z,99.90
2023-01-13T13:01:15.260Z,99.90
2023-01-13T13:04:03.895Z,99.90
2023-01-13T13:06:32.466Z,99.90
2023-01-13T13:09:17.521Z,99.90
2023-01-13T13:12:01.021Z,99.90
2023-01-13T13:14:40.366Z,99.90
2023-01-13T13:17:51.012Z,99.90
2023-01-13T13:20:52.071Z,99.90
2023-01-13T13:24:09.255Z,99.90
2023-01-13T13:26:50.056Z,99.90
2023-01-13T13:29:58.171Z,99.90
2023-01-13T13:32:48.257Z,99.90
2023-01-13T13:35:52.447Z,99.90
2023-01-13T13:39:09.961Z,99.90
2023-01-13T13:42:05.536Z,99.90
2023-01-13T13:45:04.728Z,99.90
2023-01-13T13:47:38.403Z,99.90
2023-01-13T13:50:23.273Z,99.90
2023-01-13T13:52:58.920Z,99.90
2023-01-13T13:55:28.274Z,99.90
2023-01-13T13:57:57.631Z,99.90
2023-01-13T14:00:36.117Z,99.90
2023-01-13T14:03:26.019Z,99.90
2023-01-13T14:06:00.939Z,99.90
2023-01-13T14:08:30.391Z,99.90
2023-01-13T14:10:57.585Z,99.90
2023-01-13T14:13:29.036Z,99.90
2023-01-13T14:16:04.455Z,99.90
2023-01-13T14:18:39.981Z,99.90
2023-01-13T14:21:27.038Z,99.90
2023-01-13T14:23:58.401Z,99.90
2023-01-13T14:26:32.620Z,99.90
2023-01-13T14:29:03.891Z,99.90
2023-01-13T14:31:32.879Z,99.90
2023-01-13T14:34:02.971Z,99.90
2023-01-13T14:37:08.331Z,99.90
2023-01-13T14:39:41.649Z,99.90
2023-01-13T14:42:13.992Z,99.90
2023-01-13T14:44:46.999Z,99.90
2023-01-13T14:47:23.270Z,99.90
2023-01-13T14:50:01.174Z,99.90
2023-01-13T14:52:31.932Z,99.90
2023-01-13T14:55:11.229Z,99.90
2023-01-13T14:57:41.553Z,99.90
2023-01-13T15:00:17.555Z,99.90
2023-01-13T15:02:53.776Z,99.90
2023-01-13T15:05:28.925Z,99.90
2023-01-13T15:08:04.997Z,99.90
2023-01-13T15:11:08.590Z,99.90
2023-01-13T15:13:47.389Z,99.90
2023-01-13T15:16:25.916Z,99.90
2023-01-13T15:18:54.659Z,99.90
2023-01-13T15:21:22.156Z,99.90
2023-01-13T15:23:49.461Z,99.90
2023-01-13T15:26:33.178Z,99.90
2023-01-13T15:29:20.829Z,99.90
2023-01-13T15:31:48.160Z,99.90
2023-01-13T15:34:15.421Z,99.90
2023-01-13T15:36:42.733Z,99.90
2023-01-13T15:39:13.330Z,99.90
2023-01-13T15:41:59.046Z,99.90
2023-01-13T15:44:49.685Z,99.90
2023-01-13T15:47:30.325Z,99.90
2023-01-13T15:49:57.511Z,99.90
2023-01-13T15:52:27.253Z,99.90
2023-01-13T15:54:55.141Z,99.90
2023-01-13T15:57:31.933Z,99.90
2023-01-13T16:00:14.961Z,99.90
2023-01-13T16:02:45.342Z,99.90
2023-01-13T16:05:13.037Z,99.90
2023-01-13T16:07:40.497Z,99.90
2023-01-13T16:10:21.172Z,99.90
2023-01-13T16:12:51.248Z,99.90
2023-01-13T16:15:22.450Z,99.90
2023-01-13T16:17:57.834Z,99.90
2023-01-13T16:20:25.848Z,99.90
2023-01-13T16:22:53.065Z,99.90
2023-01-13T16:25:26.398Z,99.90
2023-01-13T16:27:53.697Z,99.90
2023-01-13T16:30:22.735Z,99.90
2023-01-13T16:32:50.452Z,99.90
2023-01-13T16:35:21.710Z,99.90
2023-01-13T16:37:54.017Z,99.90
2023-01-13T16:40:31.386Z,99.90
2023-01-13T16:43:10.224Z,99.90
2023-01-13T16:45:40.118Z,99.90
2023-01-13T16:48:20.456Z,99.90
2023-01-13T16:53:44.890Z,99.90
2023-01-13T16:56:49.914Z,99.90
2023-01-13T16:59:18.176Z,99.90
2023-01-13T17:02:06.070Z,99.90
2023-01-13T17:04:33.298Z,99.90
2023-01-13T17:07:04.553Z,99.90
2023-01-13T17:09:32.278Z,99.90
2023-01-13T17:11:59.732Z,99.90
2023-01-13T17:14:32.680Z,99.90
2023-01-13T17:17:01.182Z,99.90
2023-01-13T17:19:28.477Z,99.90
2023-01-13T17:21:55.722Z,99.90
2023-01-13T17:24:26.111Z,99.90
2023-01-13T17:26:53.473Z,99.90
2023-01-13T17:29:23.560Z,99.90
2023-01-13T17:31:52.660Z,99.90
2023-01-13T17:34:21.151Z,99.90
2023-01-13T17:36:48.946Z,99.90
2023-01-13T17:39:23.899Z,99.90
2023-01-13T17:41:53.695Z,99.90
2023-01-13T17:44:22.180Z,99.90
2023-01-13T17:46:49.972Z,99.90
2023-01-13T17:49:19.168Z,99.90
2023-01-13T17:51:48.421Z,99.90
2023-01-13T17:54:16.041Z,99.90
2023-01-13T17:56:43.979Z,99.90
2023-01-13T17:59:16.688Z,99.90
2023-01-13T18:01:44.532Z,99.90
2023-01-13T18:04:18.626Z,99.90
2023-01-13T18:06:46.921Z,99.90
2023-01-13T18:09:15.459Z,99.90
2023-01-13T18:11:44.463Z,99.90
2023-01-13T18:14:12.873Z,99.90
2023-01-13T18:16:40.618Z,99.90
2023-01-13T18:19:30.598Z,99.90
2023-01-13T18:22:18.415Z,99.90
2023-01-13T18:25:07.933Z,99.90
2023-01-13T18:27:42.207Z,99.90
2023-01-13T18:30:17.406Z,99.90
2023-01-13T18:32:50.415Z,99.90
2023-01-13T18:35:24.773Z,99.90
2023-01-13T18:38:14.127Z,99.90
2023-01-13T18:41:05.651Z,99.90
2023-01-13T18:43:52.401Z,99.90
2023-01-13T18:46:26.296Z,99.90
2023-01-13T18:49:31.411Z,99.90
2023-01-13T18:52:02.587Z,99.90
2023-01-13T18:54:30.102Z,99.90
2023-01-13T18:57:22.143Z,99.90
2023-01-13T18:59:49.484Z,99.90
2023-01-13T19:02:20.690Z,99.90
2023-01-13T19:04:48.366Z,99.90
2023-01-13T19:07:23.489Z,99.90
2023-01-13T19:09:51.039Z,99.90
2023-01-13T19:12:26.453Z,99.90
2023-01-13T19:14:58.092Z,99.90
2023-01-13T19:17:32.565Z,99.90
2023-01-13T19:20:00.503Z,99.90
2023-01-13T19:25:28.566Z,99.90
2023-01-13T19:28:15.767Z,99.90
2023-01-13T19:30:43.044Z,99.90
2023-01-13T19:33:21.941Z,99.90
2023-01-13T19:35:59.342Z,99.90
2023-01-13T19:38:29.545Z,99.90
2023-01-13T19:41:07.098Z,99.90
2023-01-13T19:43:52.770Z,99.90
2023-01-13T19:46:21.866Z,99.90
2023-01-13T19:48:59.664Z,99.90
2023-01-13T19:51:29.236Z,99.90
2023-01-13T19:54:00.965Z,99.90
2023-01-13T19:56:29.511Z,99.90
2023-01-13T19:58:57.058Z,99.90
2023-01-13T20:01:31.826Z,99.90
2023-01-13T20:04:03.490Z,99.90
2023-01-13T20:06:32.763Z,99.90
2023-01-13T20:08:59.974Z,99.90
2023-01-13T20:11:31.524Z,99.90
2023-01-13T20:14:01.066Z,99.90
2023-01-13T20:16:33.096Z,99.90
2023-01-13T20:19:00.845Z,99.90
2023-01-13T20:21:31.169Z,99.90
2023-01-13T20:23:58.371Z,99.90
2023-01-13T20:26:26.816Z,99.90
2023-01-13T20:28:59.600Z,99.90
2023-01-13T20:31:29.158Z,99.90
2023-01-13T20:34:00.238Z,99.90
2023-01-13T20:36:34.028Z,99.90
2023-01-13T20:39:06.260Z,99.90
2023-01-13T20:41:56.728Z,99.90
2023-01-13T20:44:33.317Z,99.90
2023-01-13T20:47:02.948Z,99.90
2023-01-13T20:49:31.559Z,99.90
2023-01-13T20:51:59.011Z,99.90
2023-01-13T20:54:33.352Z,99.90
2023-01-13T20:57:05.332Z,99.90
2023-01-13T20:59:39.593Z,99.90
2023-01-13T21:02:14.368Z,99.90
2023-01-13T21:04:45.605Z,99.90
2023-01-13T21:07:13.169Z,99.90
2023-01-13T21:09:40.718Z,99.90
2023-01-13T21:12:29.335Z,99.90
2023-01-13T21:15:15.281Z,99.90
2023-01-13T21:18:01.415Z,99.90
2023-01-13T21:20:34.238Z,99.90
2023-01-13T21:23:03.137Z,99.90
2023-01-13T21:25:35.617Z,99.90
2023-01-13T21:28:09.576Z,99.90
2023-01-13T21:30:38.989Z,99.90
2023-01-13T21:33:08.092Z,99.90
2023-01-13T21:35:39.985Z,99.90
2023-01-13T21:38:13.963Z,99.90
2023-01-13T21:40:42.309Z,99.90
2023-01-13T21:43:31.737Z,99.90
2023-01-13T21:46:18.446Z,99.90
2023-01-13T21:48:45.639Z,99.90
2023-01-13T21:51:13.965Z,99.90
2023-01-13T21:53:43.881Z,99.90
2023-01-13T21:56:13.659Z,99.90
2023-01-13T21:58:41.811Z,99.90
2023-01-13T22:01:11.946Z,99.90
2023-01-13T22:04:01.222Z,99.90
2023-01-13T22:06:28.763Z,99.90
2023-01-13T22:09:00.175Z,99.90
2023-01-13T22:11:34.814Z,99.90
2023-01-13T22:14:09.541Z,99.90
2023-01-13T22:16:45.255Z,99.90
2023-01-13T22:19:12.660Z,99.90
2023-01-13T22:21:42.771Z,99.90
2023-01-13T22:24:13.014Z,99.90
2023-01-13T22:26:43.987Z,99.90
2023-01-13T22:29:11.165Z,99.90
2023-01-13T22:31:38.545Z,99.90
2023-01-13T22:34:05.779Z,99.90
2023-01-13T22:36:42.633Z,99.90
2023-01-13T22:39:12.793Z,99.90
2023-01-13T22:41:50.085Z,99.90
2023-01-13T22:44:22.370Z,99.90
2023-01-13T22:47:09.758Z,99.90
2023-01-13T22:52:52.009Z,99.90
2023-01-13T22:55:20.293Z,99.90
2023-01-13T22:57:48.535Z,99.90
2023-01-13T23:00:19.457Z,99.90
2023-01-13T23:02:47.349Z,99.90
2023-01-13T23:05:14.639Z,99.90
2023-01-13T23:07:42.286Z,99.90
2023-01-13T23:10:09.949Z,99.90
2023-01-13T23:12:37.236Z,99.90
2023-01-13T23:15:06.156Z,99.90
2023-01-13T23:17:36.981Z,99.90
2023-01-13T23:20:08.922Z,99.90
2023-01-13T23:22:43.521Z,99.90
2023-01-13T23:25:11.776Z,99.90
2023-01-13T23:27:39.052Z,99.90
2023-01-13T23:30:09.497Z,99.90
2023-01-13T23:32:36.694Z,99.90
2023-01-13T23:35:06.460Z,99.90
2023-01-13T23:37:34.519Z,99.90
2023-01-13T23:40:04.044Z,99.90
2023-01-13T23:42:31.528Z,99.90
2023-01-13T23:44:58.716Z,99.90
2023-01-13T23:47:30.166Z,99.90
2023-01-13T23:49:57.407Z,99.90
2023-01-13T23:52:24.710Z,99.90
2023-01-13T23:54:52.215Z,99.90
2023-01-13T23:57:19.438Z,99.90
2023-01-13T23:59:46.586Z,99.90
